Time;durP1;ratioP1;P1;durP2;ratioP2;P2;SDS_P1;SDS_P2;PMS_P1;PMS_P2;Temp;Humidity;BMP_temperature;BMP_pressure;BME280_temperature;BME280_humidity;BME280_pressure;Samples;Min_cycle;Max_cycle;Signal;HPM_P1;HPM_P2
2021/10/06 00:02:04;;;;;;;6.80;1.80;;;12.20;95.70;;;;;;4792753;29;20085;-84
2021/10/06 00:04:30;;;;;;;7.00;1.85;;;12.20;96.10;;;;;;4796313;29;20064;-84
2021/10/06 00:06:55;;;;;;;7.00;2.00;;;12.20;95.80;;;;;;4776096;30;20047;-83
2021/10/06 00:09:21;;;;;;;7.82;2.15;;;12.20;95.70;;;;;;4775316;29;20059;-84
2021/10/06 00:11:47;;;;;;;6.78;2.30;;;12.20;95.70;;;;;;4773951;30;20040;-83
2021/10/06 00:14:12;;;;;;;6.60;2.15;;;12.20;95.70;;;;;;4783797;29;20381;-84
2021/10/06 00:16:38;;;;;;;7.55;2.17;;;12.10;95.60;;;;;;4791659;29;20172;-84
2021/10/06 00:19:05;;;;;;;5.80;2.22;;;12.10;95.60;;;;;;4782372;29;20088;-83
2021/10/06 00:21:30;;;;;;;7.63;2.03;;;12.10;95.60;;;;;;4782629;29;20120;-84
2021/10/06 00:23:56;;;;;;;10.02;2.28;;;12.10;95.70;;;;;;4794386;29;20890;-85
2021/10/06 00:26:22;;;;;;;10.90;2.13;;;12.00;95.70;;;;;;4787345;29;20488;-84
2021/10/06 00:28:48;;;;;;;8.48;2.33;;;12.00;95.70;;;;;;4788215;29;20383;-84
2021/10/06 00:31:13;;;;;;;5.55;2.00;;;12.00;95.70;;;;;;4773961;30;20097;-84
2021/10/06 00:33:39;;;;;;;6.80;1.95;;;12.00;95.70;;;;;;4782836;29;20082;-84
2021/10/06 00:36:05;;;;;;;6.00;1.88;;;12.00;95.70;;;;;;4792160;29;20078;-84
2021/10/06 00:38:30;;;;;;;8.27;2.00;;;12.00;96.10;;;;;;4789076;29;20047;-84
2021/10/06 00:40:56;;;;;;;7.70;2.13;;;12.00;95.70;;;;;;4775103;30;20471;-84
2021/10/06 00:43:23;;;;;;;7.15;1.88;;;12.00;95.70;;;;;;4774088;30;20051;-84
2021/10/06 00:45:48;;;;;;;6.53;2.20;;;12.00;95.70;;;;;;4788536;29;20488;-84
2021/10/06 00:48:15;;;;;;;6.90;1.85;;;12.00;95.60;;;;;;4791672;29;20058;-84
2021/10/06 00:50:41;;;;;;;5.93;1.65;;;11.90;95.60;;;;;;4790558;29;20378;-83
2021/10/06 00:53:06;;;;;;;8.25;1.85;;;11.90;95.60;;;;;;4785247;29;20180;-84
2021/10/06 00:55:33;;;;;;;5.55;1.60;;;11.90;95.50;;;;;;4774485;30;20040;-84
2021/10/06 00:57:59;;;;;;;6.60;1.75;;;11.90;95.60;;;;;;4781247;30;20094;-83
2021/10/06 01:00:24;;;;;;;6.10;1.60;;;11.90;95.60;;;;;;4786023;29;20500;-84
2021/10/06 01:02:50;;;;;;;6.50;1.67;;;11.80;95.60;;;;;;4791220;29;20051;-84
2021/10/06 01:05:17;;;;;;;5.75;1.50;;;11.80;95.70;;;;;;4781704;30;20047;-84
2021/10/06 01:07:43;;;;;;;6.88;1.60;;;11.80;95.70;;;;;;4776872;29;20059;-84
2021/10/06 01:10:10;;;;;;;6.35;1.50;;;11.80;95.70;;;;;;4774481;30;20077;-84
2021/10/06 01:12:38;;;;;;;6.07;1.40;;;11.80;95.70;;;;;;4801331;29;20141;-84
2021/10/06 01:15:07;;;;;;;5.88;1.55;;;11.80;95.70;;;;;;4782470;29;20051;-84
2021/10/06 01:17:33;;;;;;;5.47;1.63;;;11.80;95.70;;;;;;4782657;29;20055;-84
2021/10/06 01:19:58;;;;;;;5.82;1.40;;;11.80;95.70;;;;;;4784595;29;20057;-84
2021/10/06 01:22:24;;;;;;;8.63;1.77;;;11.80;95.70;;;;;;4790564;29;20090;-84
2021/10/06 01:24:49;;;;;;;5.78;1.50;;;11.80;95.70;;;;;;4777118;30;20054;-84
2021/10/06 01:27:15;;;;;;;7.13;1.58;;;11.80;95.70;;;;;;4787417;29;20047;-84
2021/10/06 01:29:41;;;;;;;7.30;1.40;;;11.80;95.80;;;;;;4775446;29;20058;-85
2021/10/06 01:32:14;;;;;;;6.88;1.40;;;11.80;95.70;;;;;;4784587;30;20051;-84
2021/10/06 01:34:41;;;;;;;4.55;1.30;;;11.80;95.70;;;;;;4794446;29;20104;-84
2021/10/06 01:37:07;;;;;;;6.43;1.40;;;11.80;95.70;;;;;;4790999;29;20115;-84
2021/10/06 01:39:32;;;;;;;10.50;1.73;;;11.80;95.80;;;;;;4786464;29;20110;-84
2021/10/06 01:41:59;;;;;;;6.25;1.67;;;11.70;95.70;;;;;;4781345;30;20047;-84
2021/10/06 01:44:25;;;;;;;5.18;1.48;;;11.70;96.00;;;;;;4772917;30;20051;-84
2021/10/06 01:46:51;;;;;;;7.88;1.70;;;11.70;95.70;;;;;;4783839;30;20508;-84
2021/10/06 01:49:16;;;;;;;7.22;1.70;;;11.70;95.70;;;;;;4771717;30;20120;-84
2021/10/06 01:51:42;;;;;;;6.03;1.60;;;11.80;95.80;;;;;;4773323;29;20047;-84
2021/10/06 01:54:09;;;;;;;7.28;1.60;;;11.70;95.70;;;;;;4778465;29;20401;-84
2021/10/06 01:56:34;;;;;;;5.68;1.50;;;11.80;95.80;;;;;;4788264;29;20050;-84
2021/10/06 01:59:00;;;;;;;8.90;1.70;;;11.80;95.80;;;;;;4775955;29;20051;-84
2021/10/06 02:01:26;;;;;;;4.05;1.58;;;11.70;95.70;;;;;;4794224;29;20121;-84
2021/10/06 02:03:52;;;;;;;6.18;1.60;;;11.80;95.80;;;;;;4776279;30;20093;-84
2021/10/06 02:06:19;;;;;;;5.88;1.70;;;11.80;95.70;;;;;;4777050;29;20043;-85
2021/10/06 02:08:44;;;;;;;4.85;1.50;;;11.80;95.70;;;;;;4773554;30;20531;-85
2021/10/06 02:11:11;;;;;;;6.45;1.65;;;11.80;95.70;;;;;;4772617;30;20130;-84
2021/10/06 02:13:36;;;;;;;6.88;1.70;;;11.70;95.60;;;;;;4789132;29;20126;-85
2021/10/06 02:16:02;;;;;;;4.50;1.40;;;11.70;95.70;;;;;;4780497;29;20089;-84
2021/10/06 02:18:28;;;;;;;6.53;1.85;;;11.80;95.70;;;;;;4787643;29;20042;-84
2021/10/06 02:20:53;;;;;;;6.63;1.98;;;11.70;95.60;;;;;;4788979;29;20081;-84
2021/10/06 02:23:19;;;;;;;6.13;1.90;;;11.70;95.70;;;;;;4791957;29;20428;-84
2021/10/06 02:25:45;;;;;;;5.22;1.85;;;11.70;95.70;;;;;;4778229;30;20043;-84
2021/10/06 02:28:10;;;;;;;7.55;1.90;;;11.70;95.70;;;;;;4772210;30;20466;-85
2021/10/06 02:30:37;;;;;;;5.13;1.90;;;11.70;95.70;;;;;;4772400;29;20051;-84
2021/10/06 02:33:03;;;;;;;7.80;2.10;;;11.70;95.70;;;;;;4776383;29;20142;-84
2021/10/06 02:35:29;;;;;;;7.63;2.05;;;11.70;95.70;;;;;;4789505;29;20058;-84
2021/10/06 02:37:54;;;;;;;5.43;2.15;;;11.70;95.70;;;;;;4787824;29;20051;-84
2021/10/06 02:40:20;;;;;;;6.60;2.28;;;11.70;95.70;;;;;;4776237;29;20588;-84
2021/10/06 02:42:48;;;;;;;6.63;2.20;;;11.70;95.70;;;;;;4789291;29;20138;-84
2021/10/06 02:45:16;;;;;;;6.32;2.10;;;11.70;95.70;;;;;;4789130;29;20188;-84
2021/10/06 02:47:46;;;;;;;7.13;2.42;;;11.70;95.70;;;;;;4784890;29;20050;-84
2021/10/06 02:50:14;;;;;;;9.73;2.85;;;11.70;95.70;;;;;;4775075;30;20055;-84
2021/10/06 02:52:40;;;;;;;9.45;3.03;;;11.70;95.70;;;;;;4777637;29;20096;-84
2021/10/06 02:55:06;;;;;;;9.35;2.60;;;11.70;95.70;;;;;;4779696;29;20059;-84
2021/10/06 02:57:33;;;;;;;7.30;2.70;;;11.70;95.80;;;;;;4774472;29;20577;-84
2021/10/06 02:59:58;;;;;;;9.20;2.83;;;11.80;95.80;;;;;;4771259;30;20053;-83
2021/10/06 03:02:24;;;;;;;4.57;1.92;;;11.80;95.80;;;;;;4782724;29;20050;-84
2021/10/06 03:04:51;;;;;;;10.63;3.90;;;11.80;95.80;;;;;;4778684;30;20146;-84
2021/10/06 03:07:16;;;;;;;12.30;3.00;;;11.80;95.90;;;;;;4772504;30;20446;-85
2021/10/06 03:09:42;;;;;;;10.00;3.58;;;11.80;95.80;;;;;;4786117;29;20091;-84
2021/10/06 03:12:07;;;;;;;10.15;3.38;;;11.80;95.80;;;;;;4784464;29;20039;-84
2021/10/06 03:14:33;;;;;;;9.70;3.65;;;11.70;95.80;;;;;;4772117;29;20112;-84
2021/10/06 03:16:59;;;;;;;8.98;2.83;;;11.80;95.80;;;;;;4772699;30;20144;-85
2021/10/06 03:19:24;;;;;;;10.32;3.20;;;11.80;95.90;;;;;;4777417;29;20515;-84
2021/10/06 03:21:50;;;;;;;10.95;3.60;;;11.80;95.90;;;;;;4787460;29;20446;-84
2021/10/06 03:24:15;;;;;;;9.27;3.47;;;11.80;95.90;;;;;;4780428;29;20078;-83
2021/10/06 03:26:41;;;;;;;7.10;3.40;;;11.80;95.90;;;;;;4788239;29;20069;-85
2021/10/06 03:29:07;;;;;;;5.72;3.08;;;11.80;95.90;;;;;;4778900;29;20049;-83
2021/10/06 03:31:32;;;;;;;10.90;3.42;;;11.80;96.00;;;;;;4783612;29;20141;-83
2021/10/06 03:33:59;;;;;;;7.72;3.10;;;11.80;96.00;;;;;;4774454;30;20066;-82
2021/10/06 03:36:26;;;;;;;8.48;3.13;;;11.80;96.10;;;;;;4780020;29;20043;-84
2021/10/06 03:38:52;;;;;;;8.52;3.25;;;11.80;96.10;;;;;;4779845;29;20059;-82
2021/10/06 03:41:18;;;;;;;9.27;3.08;;;11.80;96.20;;;;;;4787764;29;20054;-83
2021/10/06 03:43:43;;;;;;;9.43;3.00;;;11.80;96.20;;;;;;4790126;29;20076;-82
2021/10/06 03:46:09;;;;;;;8.88;2.95;;;11.70;96.20;;;;;;4774750;29;20058;-83
2021/10/06 03:48:34;;;;;;;9.43;2.72;;;11.70;96.20;;;;;;4774858;30;20409;-82
2021/10/06 03:51:00;;;;;;;7.53;2.65;;;11.70;96.30;;;;;;4775759;29;20058;-83
2021/10/06 03:53:25;;;;;;;7.07;2.75;;;11.70;96.30;;;;;;4779851;30;20048;-83
2021/10/06 03:55:51;;;;;;;5.85;2.42;;;11.70;96.30;;;;;;4774391;30;20051;-83
2021/10/06 03:58:17;;;;;;;9.68;2.55;;;11.70;96.30;;;;;;4775691;30;20057;-83
2021/10/06 04:00:43;;;;;;;7.35;2.25;;;11.70;96.20;;;;;;4777556;29;20065;-83
2021/10/06 04:03:10;;;;;;;8.75;2.40;;;11.70;96.20;;;;;;4782822;29;20047;-83
2021/10/06 04:05:36;;;;;;;10.13;2.15;;;11.60;96.20;;;;;;4790483;29;20585;-83
2021/10/06 04:08:02;;;;;;;8.68;2.10;;;11.70;96.20;;;;;;4784063;29;20134;-83
2021/10/06 04:10:28;;;;;;;8.13;2.38;;;11.70;96.20;;;;;;4773758;30;20139;-82
2021/10/06 04:12:53;;;;;;;7.68;2.15;;;11.60;96.10;;;;;;4782317;29;20118;-83
2021/10/06 04:15:19;;;;;;;6.00;1.83;;;11.70;96.10;;;;;;4774726;30;20047;-83
2021/10/06 04:17:45;;;;;;;7.18;2.20;;;11.60;96.00;;;;;;4789983;29;20055;-84
2021/10/06 04:20:10;;;;;;;7.22;1.70;;;11.70;96.00;;;;;;4775100;29;20043;-83
2021/10/06 04:22:36;;;;;;;7.10;1.90;;;11.70;96.00;;;;;;4782581;30;20054;-83
2021/10/06 04:25:02;;;;;;;6.93;2.00;;;11.60;96.00;;;;;;4789606;29;20139;-83
2021/10/06 04:27:28;;;;;;;4.75;1.48;;;11.60;96.00;;;;;;4776981;29;20043;-83
2021/10/06 04:29:54;;;;;;;6.43;1.80;;;11.60;96.00;;;;;;4807486;29;20062;-84
2021/10/06 04:32:20;;;;;;;7.20;1.83;;;11.60;95.90;;;;;;4788917;29;20124;-84
2021/10/06 04:34:45;;;;;;;7.82;1.30;;;11.60;95.90;;;;;;4790649;29;20505;-84
2021/10/06 04:37:11;;;;;;;7.80;1.60;;;11.60;95.90;;;;;;4786856;29;20097;-84
2021/10/06 04:39:36;;;;;;;7.65;1.55;;;11.60;95.90;;;;;;4808019;29;20133;-84
2021/10/06 04:42:02;;;;;;;6.47;1.77;;;11.60;95.90;;;;;;4777935;29;20055;-84
2021/10/06 04:44:28;;;;;;;6.07;1.75;;;11.60;95.90;;;;;;4773708;29;20054;-84
2021/10/06 04:46:53;;;;;;;5.68;1.40;;;11.60;95.90;;;;;;4784594;29;20405;-84
2021/10/06 04:49:19;;;;;;;7.45;1.75;;;11.60;95.90;;;;;;4791848;29;20197;-84
2021/10/06 04:51:44;;;;;;;6.97;1.70;;;11.60;95.90;;;;;;4781432;29;20051;-84
2021/10/06 04:54:10;;;;;;;7.50;1.63;;;11.60;95.90;;;;;;4791918;29;20050;-83
2021/10/06 04:56:36;;;;;;;6.43;1.95;;;11.70;95.90;;;;;;4789181;29;20047;-86
2021/10/06 04:59:01;;;;;;;6.22;1.58;;;11.60;95.90;;;;;;4805518;29;20047;-84
2021/10/06 05:01:27;;;;;;;5.40;1.73;;;11.60;96.00;;;;;;4784260;30;20489;-85
2021/10/06 05:03:52;;;;;;;6.30;1.83;;;11.70;96.00;;;;;;4777972;29;20055;-84
2021/10/06 05:06:20;;;;;;;8.45;2.35;;;11.70;96.00;;;;;;4779141;29;20061;-84
2021/10/06 05:08:46;;;;;;;8.75;2.20;;;11.70;96.10;;;;;;4777742;29;20493;-83
2021/10/06 05:11:12;;;;;;;7.40;2.10;;;11.70;96.10;;;;;;4773809;29;20103;-84
2021/10/06 05:13:38;;;;;;;8.88;2.25;;;11.60;96.10;;;;;;4772233;29;20116;-84
2021/10/06 05:16:09;;;;;;;6.50;1.98;;;11.70;96.20;;;;;;4783644;29;20052;-84
2021/10/06 05:18:35;;;;;;;7.20;2.38;;;11.60;96.10;;;;;;4802693;29;20054;-84
2021/10/06 05:21:00;;;;;;;5.95;2.22;;;11.60;96.20;;;;;;4788142;29;20059;-84
2021/10/06 05:23:26;;;;;;;6.65;1.95;;;11.60;96.20;;;;;;4786826;29;20053;-84
2021/10/06 05:25:52;;;;;;;8.35;2.00;;;11.60;96.20;;;;;;4786077;29;20059;-83
2021/10/06 05:28:17;;;;;;;5.53;2.15;;;11.60;96.20;;;;;;4800475;29;20146;-84
2021/10/06 05:30:43;;;;;;;6.72;2.08;;;11.60;96.20;;;;;;4793203;29;20051;-84
2021/10/06 05:33:08;;;;;;;7.20;2.20;;;11.60;96.10;;;;;;4790835;29;20059;-84
2021/10/06 05:35:34;;;;;;;7.22;2.20;;;11.60;96.10;;;;;;4782651;29;20135;-85
2021/10/06 05:38:00;;;;;;;8.20;2.42;;;11.60;96.10;;;;;;4781845;29;20054;-84
2021/10/06 05:40:26;;;;;;;5.55;1.65;;;11.60;96.10;;;;;;4774940;29;20078;-83
2021/10/06 05:42:51;;;;;;;7.18;2.05;;;11.60;96.10;;;;;;4786465;29;20122;-84
2021/10/06 05:45:17;;;;;;;5.72;1.75;;;11.50;96.10;;;;;;4788421;29;20043;-84
2021/10/06 05:47:42;;;;;;;5.88;1.85;;;11.60;96.10;;;;;;4780837;29;20051;-84
2021/10/06 05:50:09;;;;;;;7.70;2.10;;;11.50;96.10;;;;;;4775645;30;20481;-84
2021/10/06 05:52:35;;;;;;;6.10;2.00;;;11.50;96.10;;;;;;4790379;29;20046;-84
2021/10/06 05:55:01;;;;;;;6.03;1.95;;;11.50;96.10;;;;;;4772850;30;20126;-83
2021/10/06 05:57:27;;;;;;;5.68;1.90;;;11.50;96.10;;;;;;4778293;29;20051;-85
2021/10/06 05:59:53;;;;;;;7.43;2.00;;;11.50;96.10;;;;;;4773208;30;20047;-83
2021/10/06 06:02:19;;;;;;;6.03;2.15;;;11.50;96.10;;;;;;4777420;29;20470;-82
2021/10/06 06:04:45;;;;;;;5.57;1.92;;;11.50;96.10;;;;;;4780856;29;20058;-83
2021/10/06 06:07:10;;;;;;;4.78;1.70;;;11.50;96.10;;;;;;4772635;30;20420;-86
2021/10/06 06:09:36;;;;;;;3.70;1.55;;;11.50;96.10;;;;;;4771488;30;20043;-86
2021/10/06 06:12:02;;;;;;;6.63;2.00;;;11.50;96.10;;;;;;4772676;29;20314;-86
2021/10/06 06:14:29;;;;;;;7.25;1.83;;;11.50;96.10;;;;;;4775304;29;20045;-86
2021/10/06 06:16:55;;;;;;;7.22;2.25;;;11.50;96.10;;;;;;4789836;29;20104;-83
2021/10/06 06:19:20;;;;;;;6.88;1.90;;;11.50;96.10;;;;;;4783585;29;20495;-82
2021/10/06 06:21:46;;;;;;;5.03;1.90;;;11.50;96.10;;;;;;4774688;30;20040;-81
2021/10/06 06:24:12;;;;;;;5.55;1.92;;;11.50;96.10;;;;;;4785499;29;20058;-82
2021/10/06 06:26:37;;;;;;;5.47;1.90;;;11.50;96.10;;;;;;4789394;29;20076;-82
2021/10/06 06:29:03;;;;;;;5.90;2.28;;;11.50;96.20;;;;;;4786940;29;20082;-82
2021/10/06 06:31:29;;;;;;;7.18;2.47;;;11.50;96.20;;;;;;4784748;29;20137;-81
2021/10/06 06:33:55;;;;;;;6.78;2.03;;;11.50;96.10;;;;;;4789949;29;20127;-82
2021/10/06 06:36:21;;;;;;;5.32;2.10;;;11.50;96.10;;;;;;4784132;29;20060;-82
2021/10/06 06:38:46;;;;;;;6.63;2.17;;;11.50;96.10;;;;;;4776875;29;20459;-82
2021/10/06 06:41:12;;;;;;;5.35;2.30;;;11.50;96.10;;;;;;4793034;29;20051;-82
2021/10/06 06:43:37;;;;;;;5.47;2.33;;;11.40;96.00;;;;;;4776690;30;20055;-81
2021/10/06 06:46:03;;;;;;;7.30;2.00;;;11.50;96.10;;;;;;4779372;29;20039;-82
2021/10/06 06:48:29;;;;;;;6.15;2.10;;;11.50;96.10;;;;;;4784188;29;20062;-82
2021/10/06 06:50:54;;;;;;;4.78;1.70;;;11.50;96.00;;;;;;4781897;29;20042;-82
2021/10/06 06:53:26;;;;;;;6.65;2.00;;;11.50;96.00;;;;;;4780332;29;20042;-82
2021/10/06 06:55:53;;;;;;;7.20;2.05;;;11.50;96.00;;;;;;4788670;29;20500;-84
2021/10/06 06:58:19;;;;;;;3.88;2.00;;;11.50;96.00;;;;;;4789440;29;20408;-83
2021/10/06 07:00:44;;;;;;;6.40;2.17;;;11.50;96.00;;;;;;4789223;29;20066;-82
2021/10/06 07:03:10;;;;;;;6.15;1.77;;;11.60;96.00;;;;;;4780543;29;20484;-83
2021/10/06 07:05:35;;;;;;;4.30;2.03;;;11.60;96.00;;;;;;4783558;29;20035;-83
2021/10/06 07:08:02;;;;;;;4.80;2.30;;;11.60;95.90;;;;;;4778650;29;20134;-82
2021/10/06 07:10:29;;;;;;;6.85;2.00;;;11.60;95.90;;;;;;4788952;29;20076;-83
2021/10/06 07:12:54;;;;;;;6.35;1.95;;;11.60;95.90;;;;;;4777705;29;20044;-82
2021/10/06 07:15:20;;;;;;;5.50;1.80;;;11.60;95.90;;;;;;4774356;30;20047;-82
2021/10/06 07:17:45;;;;;;;5.90;1.98;;;11.60;96.00;;;;;;4781309;29;20046;-82
2021/10/06 07:20:11;;;;;;;5.47;2.28;;;11.60;96.00;;;;;;4787858;29;20073;-82
2021/10/06 07:22:40;;;;;;;4.38;1.88;;;11.60;95.90;;;;;;4802011;29;20058;-82
2021/10/06 07:25:06;;;;;;;4.10;1.80;;;11.60;95.90;;;;;;4782441;29;20407;-82
2021/10/06 07:27:32;;;;;;;5.22;1.90;;;11.70;95.90;;;;;;4787070;29;20080;-82
2021/10/06 07:29:58;;;;;;;4.97;1.65;;;11.70;95.90;;;;;;4784412;29;20048;-82
2021/10/06 07:32:23;;;;;;;3.72;1.30;;;11.70;96.20;;;;;;4741244;30;1068378;-82
2021/10/06 07:34:49;;;;;;;5.35;1.48;;;11.70;95.90;;;;;;4778551;29;20080;-82
2021/10/06 07:37:15;;;;;;;4.20;1.50;;;11.70;95.90;;;;;;4769936;30;20051;-82
2021/10/06 07:39:40;;;;;;;3.65;1.50;;;11.80;95.80;;;;;;4774169;29;20062;-83
2021/10/06 07:42:06;;;;;;;5.28;1.65;;;11.80;95.80;;;;;;4775681;30;20055;-83
2021/10/06 07:44:32;;;;;;;6.18;2.05;;;11.80;95.80;;;;;;4780449;29;20051;-83
2021/10/06 07:46:58;;;;;;;5.93;1.80;;;11.80;95.80;;;;;;4792146;29;20072;-84
2021/10/06 07:49:23;;;;;;;3.97;1.58;;;11.80;95.90;;;;;;4788615;29;20043;-83
2021/10/06 07:51:49;;;;;;;4.78;1.48;;;11.90;95.90;;;;;;4786854;29;20560;-82
2021/10/06 07:54:14;;;;;;;5.95;1.50;;;11.80;95.90;;;;;;4776594;29;20404;-82
2021/10/06 07:56:40;;;;;;;3.22;1.40;;;11.90;95.90;;;;;;4779103;29;20034;-83
2021/10/06 07:59:05;;;;;;;5.57;1.80;;;11.90;95.80;;;;;;4789674;29;20461;-82
2021/10/06 08:01:31;;;;;;;4.47;1.70;;;11.90;95.90;;;;;;4809394;29;20034;-82
2021/10/06 08:03:57;;;;;;;3.33;1.48;;;11.90;95.90;;;;;;4799723;29;20117;-83
2021/10/06 08:06:22;;;;;;;4.85;1.70;;;11.90;96.00;;;;;;4792476;29;20160;-82
2021/10/06 08:08:48;;;;;;;4.47;1.80;;;11.90;95.90;;;;;;4790524;29;20054;-82
2021/10/06 08:11:13;;;;;;;5.13;1.58;;;11.90;96.00;;;;;;4777350;29;20111;-82
2021/10/06 08:13:39;;;;;;;2.88;1.40;;;11.90;96.00;;;;;;4787797;29;20047;-81
2021/10/06 08:16:05;;;;;;;4.88;1.90;;;11.90;96.00;;;;;;4783340;29;20118;-83
2021/10/06 08:18:31;;;;;;;4.65;2.00;;;11.90;96.00;;;;;;4774616;29;20062;-82
2021/10/06 08:20:57;;;;;;;3.50;1.58;;;11.90;96.10;;;;;;4775465;29;20050;-81
2021/10/06 08:23:26;;;;;;;3.72;1.65;;;11.90;96.10;;;;;;4775429;30;20104;-81
2021/10/06 08:25:52;;;;;;;4.70;1.70;;;11.90;96.10;;;;;;4800651;29;20770;-82
2021/10/06 08:28:19;;;;;;;5.53;2.20;;;11.90;96.10;;;;;;4780811;30;20059;-83
2021/10/06 08:30:45;;;;;;;4.78;1.88;;;11.90;96.20;;;;;;4801773;29;20669;-82
2021/10/06 08:33:10;;;;;;;4.68;2.28;;;11.90;96.20;;;;;;4788458;29;20067;-83
2021/10/06 08:35:39;;;;;;;5.32;2.20;;;11.90;96.30;;;;;;4790485;29;20063;-84
2021/10/06 08:38:06;;;;;;;4.75;2.00;;;11.90;96.30;;;;;;4779681;29;20043;-83
2021/10/06 08:40:34;;;;;;;5.95;2.20;;;11.90;96.40;;;;;;4791275;29;20076;-83
2021/10/06 08:43:04;;;;;;;4.28;1.98;;;12.00;96.40;;;;;;4790620;29;20061;-83
2021/10/06 08:45:30;;;;;;;6.50;2.20;;;11.90;96.40;;;;;;4784650;29;20047;-83
2021/10/06 08:47:58;;;;;;;4.72;2.00;;;11.90;96.40;;;;;;4781571;29;20134;-83
2021/10/06 08:50:24;;;;;;;4.00;2.20;;;11.90;96.40;;;;;;4786770;29;20038;-82
2021/10/06 08:52:50;;;;;;;6.38;1.90;;;12.00;96.50;;;;;;4787761;29;20408;-82
2021/10/06 08:55:18;;;;;;;3.47;1.60;;;11.90;96.40;;;;;;4798328;29;20077;-83
2021/10/06 08:57:44;;;;;;;4.18;1.83;;;12.00;96.20;;;;;;4790583;29;20053;-82
2021/10/06 09:00:11;;;;;;;5.22;2.00;;;12.00;96.20;;;;;;4791539;29;20400;-82
2021/10/06 09:02:39;;;;;;;5.35;1.98;;;12.00;96.20;;;;;;4796216;29;20166;-83
2021/10/06 09:05:06;;;;;;;5.82;1.67;;;12.00;96.30;;;;;;4797552;29;20050;-83
2021/10/06 09:07:32;;;;;;;5.22;2.30;;;12.00;96.20;;;;;;4806368;29;20039;-82
2021/10/06 09:10:12;;;;;;;6.95;2.13;;;12.00;96.30;;;;;;4789962;29;20121;-82
2021/10/06 09:12:40;;;;;;;5.95;1.90;;;12.10;96.40;;;;;;4804810;29;20565;-82
2021/10/06 09:15:10;;;;;;;5.85;2.05;;;12.10;96.50;;;;;;4806825;29;20420;-83
2021/10/06 09:17:38;;;;;;;4.65;1.70;;;12.10;96.40;;;;;;4780419;29;20480;-83
2021/10/06 09:20:10;;;;;;;4.47;1.60;;;12.10;96.30;;;;;;4806012;29;20043;-83
2021/10/06 09:22:35;;;;;;;6.35;1.95;;;12.10;96.30;;;;;;4802942;29;20050;-83
2021/10/06 09:25:07;;;;;;;6.95;1.88;;;12.20;96.30;;;;;;4806649;29;20047;-83
2021/10/06 09:27:38;;;;;;;4.60;1.67;;;12.20;96.30;;;;;;4789427;29;20065;-83
2021/10/06 09:30:07;;;;;;;3.58;1.60;;;12.20;96.30;;;;;;4806851;29;20397;-83
2021/10/06 09:32:39;;;;;;;4.82;1.85;;;12.20;96.30;;;;;;4787752;29;20109;-83
2021/10/06 09:35:18;;;;;;;5.55;2.10;;;12.30;96.30;;;;;;4788937;29;20115;-83
2021/10/06 09:37:47;;;;;;;5.72;2.00;;;12.30;96.30;;;;;;4789613;29;20050;-83
2021/10/06 09:40:14;;;;;;;5.38;1.63;;;12.30;96.30;;;;;;4789919;29;20120;-83
2021/10/06 09:42:44;;;;;;;6.97;1.70;;;12.30;96.20;;;;;;4789656;29;20050;-83
2021/10/06 09:45:19;;;;;;;4.97;1.88;;;12.40;96.30;;;;;;4787930;29;20051;-83
2021/10/06 09:48:04;;;;;;;3.28;1.60;;;12.40;96.40;;;;;;4777938;29;20142;-83
2021/10/06 09:50:32;;;;;;;5.45;1.80;;;12.50;96.20;;;;;;4787517;29;20057;-83
2021/10/06 09:53:07;;;;;;;5.55;1.85;;;12.50;96.30;;;;;;4801668;29;20061;-83
2021/10/06 09:55:37;;;;;;;5.07;1.90;;;12.50;96.40;;;;;;4778813;29;20042;-83
2021/10/06 09:58:03;;;;;;;8.02;2.25;;;12.60;96.40;;;;;;4778010;29;20051;-83
2021/10/06 10:00:29;;;;;;;8.65;2.10;;;12.60;96.50;;;;;;4787547;29;20042;-83
2021/10/06 10:02:57;;;;;;;5.80;2.08;;;12.60;96.50;;;;;;4787705;29;20055;-83
2021/10/06 10:05:22;;;;;;;7.22;2.10;;;12.70;96.60;;;;;;4790491;29;20056;-83
2021/10/06 10:07:50;;;;;;;6.13;2.03;;;12.80;96.60;;;;;;4778606;29;20047;-83
2021/10/06 10:10:16;;;;;;;7.18;2.17;;;12.80;96.70;;;;;;4779237;29;20078;-83
2021/10/06 10:12:42;;;;;;;5.25;1.75;;;12.80;96.70;;;;;;4789046;29;20449;-83
2021/10/06 10:15:10;;;;;;;6.25;1.95;;;12.90;96.50;;;;;;4787997;29;20101;-83
2021/10/06 10:17:36;;;;;;;4.72;1.90;;;13.00;96.60;;;;;;4781507;29;20047;-83
2021/10/06 10:21:00;;;;;;;;;;;;;;;;;;;;;
2021/10/06 10:29:44;;;;;;;8.40;2.80;;;13.10;96.40;;;;;;4785289;29;20047;-81
2021/10/06 10:32:21;;;;;;;5.68;1.70;;;13.20;96.20;;;;;;4766570;30;20088;-82
2021/10/06 10:35:00;;;;;;;6.03;1.60;;;13.20;96.20;;;;;;4767574;30;20085;-84
2021/10/06 10:37:45;;;;;;;5.95;1.65;;;13.20;96.10;;;;;;4765831;30;20047;-84
2021/10/06 10:43:07;;;;;;;3.95;1.75;;;13.30;95.90;;;;;;4784189;30;20829;-85
2021/10/06 10:46:02;;;;;;;4.15;1.33;;;13.30;95.90;;;;;;4766825;30;20067;-86
2021/10/06 10:48:58;;;;;;;6.28;1.80;;;13.30;95.70;;;;;;4771613;30;20072;-86
2021/10/06 10:51:45;;;;;;;3.42;1.30;;;13.30;95.80;;;;;;4771343;30;20562;-84
2021/10/06 10:54:28;;;;;;;4.35;1.23;;;13.30;95.70;;;;;;4766860;30;20412;-86
2021/10/06 10:56:54;;;;;;;4.90;1.25;;;13.40;95.70;;;;;;4763362;30;20047;-85
2021/10/06 10:59:24;;;;;;;4.38;1.35;;;13.40;95.60;;;;;;4765256;29;20054;-86
2021/10/06 11:01:54;;;;;;;4.95;1.27;;;13.40;95.60;;;;;;4771613;30;20167;-86
2021/10/06 11:04:23;;;;;;;6.65;1.33;;;13.40;95.60;;;;;;4769957;30;20100;-85
2021/10/06 11:06:52;;;;;;;4.85;1.20;;;13.40;95.60;;;;;;4770427;30;20051;-85
2021/10/06 11:09:29;;;;;;;4.03;1.40;;;13.50;95.60;;;;;;4772324;30;20132;-85
2021/10/06 11:12:05;;;;;;;5.25;1.70;;;13.50;95.50;;;;;;4771461;30;20043;-85
2021/10/06 11:14:38;;;;;;;4.20;1.50;;;13.50;95.60;;;;;;4772121;30;20067;-85
2021/10/06 11:17:06;;;;;;;;;;;13.50;95.60;;;;;;4772303;30;20039;-84
2021/10/06 11:19:43;;;;;;;5.93;1.60;;;13.50;95.70;;;;;;4771116;30;19942;-84
2021/10/06 11:22:24;;;;;;;5.15;1.70;;;13.60;95.60;;;;;;4766148;30;20134;-84
2021/10/06 11:24:51;;;;;;;4.97;1.90;;;13.60;95.50;;;;;;4770642;30;20055;-84
2021/10/06 11:27:18;;;;;;;5.78;1.35;;;13.70;95.60;;;;;;4772681;30;20067;-84
2021/10/06 11:29:45;;;;;;;5.88;1.40;;;13.70;95.60;;;;;;4788941;29;20134;-84
2021/10/06 11:32:10;;;;;;;3.90;1.33;;;13.70;95.60;;;;;;4789219;29;20047;-84
2021/10/06 11:34:50;;;;;;;5.57;1.23;;;13.80;95.60;;;;;;4789518;29;20138;-84
2021/10/06 11:37:20;;;;;;;4.75;1.30;;;13.90;95.40;;;;;;4789810;29;20043;-85
2021/10/06 11:39:47;;;;;;;6.72;1.30;;;13.90;95.50;;;;;;4788858;29;20572;-84
2021/10/06 11:42:14;;;;;;;4.75;1.40;;;14.00;95.40;;;;;;4790291;29;20051;-84
2021/10/06 11:44:40;;;;;;;3.60;1.00;;;14.00;95.30;;;;;;4792409;29;20096;-85
2021/10/06 11:47:08;;;;;;;5.03;1.15;;;14.10;95.20;;;;;;4791886;29;20152;-84
2021/10/06 11:49:42;;;;;;;4.47;1.05;;;14.20;95.00;;;;;;4792868;29;20051;-84
2021/10/06 11:52:10;;;;;;;5.03;1.00;;;14.20;94.80;;;;;;4792886;29;20088;-84
2021/10/06 11:54:36;;;;;;;5.00;1.00;;;14.30;94.50;;;;;;4791465;29;20482;-84
2021/10/06 11:57:04;;;;;;;4.30;0.98;;;14.30;94.40;;;;;;4793045;29;20039;-84
2021/10/06 11:59:33;;;;;;;3.65;0.80;;;14.40;94.30;;;;;;4792347;29;20046;-84
2021/10/06 12:02:18;;;;;;;4.18;0.73;;;14.40;94.20;;;;;;4791732;29;20074;-84
2021/10/06 12:04:46;;;;;;;4.13;0.80;;;14.50;93.90;;;;;;4792691;29;20046;-84
2021/10/06 12:07:17;;;;;;;4.50;0.80;;;14.50;93.90;;;;;;4791991;29;20050;-85
2021/10/06 12:09:49;;;;;;;5.40;0.93;;;14.60;93.80;;;;;;4792297;29;20080;-84
2021/10/06 12:12:33;;;;;;;4.22;0.70;;;14.70;93.70;;;;;;4792537;29;20149;-83
2021/10/06 12:15:04;;;;;;;8.88;1.20;;;14.70;93.40;;;;;;4791394;29;20459;-83
2021/10/06 12:17:35;;;;;;;4.70;1.00;;;14.70;93.50;;;;;;4791865;29;20051;-85
2021/10/06 12:20:06;;;;;;;4.32;1.40;;;14.70;93.60;;;;;;4792318;29;20137;-85
2021/10/06 12:22:41;;;;;;;5.43;1.15;;;14.70;93.60;;;;;;4790888;29;20045;-84
2021/10/06 12:25:10;;;;;;;5.80;1.02;;;14.80;93.60;;;;;;4792573;29;20350;-85
2021/10/06 12:27:38;;;;;;;5.57;1.40;;;14.80;93.60;;;;;;4791836;29;20086;-85
2021/10/06 12:30:25;;;;;;;4.75;1.00;;;14.70;93.70;;;;;;4791943;29;20043;-86
2021/10/06 12:33:19;;;;;;;5.80;1.10;;;14.70;93.60;;;;;;4792577;29;20055;-85
2021/10/06 12:35:46;;;;;;;3.92;1.00;;;14.70;93.80;;;;;;4779925;29;20058;-85
2021/10/06 12:38:13;;;;;;;4.15;1.08;;;14.70;94.00;;;;;;4792336;29;20051;-85
2021/10/06 12:40:48;;;;;;;4.32;1.30;;;14.70;94.00;;;;;;4791831;29;20146;-85
2021/10/06 12:43:21;;;;;;;4.80;1.00;;;14.70;94.00;;;;;;4791631;29;20059;-86
2021/10/06 12:46:23;;;;;;;5.35;1.13;;;14.80;94.00;;;;;;4792436;29;20051;-86
2021/10/06 12:48:56;;;;;;;4.80;1.10;;;14.80;93.90;;;;;;4763401;29;20073;-85
2021/10/06 12:51:28;;;;;;;3.28;0.95;;;14.80;94.00;;;;;;4773460;30;20047;-85
2021/10/06 12:54:15;;;;;;;3.78;0.90;;;14.80;94.00;;;;;;4780203;29;20197;-85
2021/10/06 12:57:01;;;;;;;7.90;1.05;;;14.80;94.00;;;;;;4790865;29;20054;-85
2021/10/06 12:59:33;;;;;;;5.50;1.20;;;14.80;94.00;;;;;;4790074;29;20051;-84
2021/10/06 13:02:00;;;;;;;5.07;1.10;;;14.80;94.00;;;;;;4791340;29;20100;-84